createdAt,value
2018-05-01T00:00:41.206Z,10.31
2018-05-01T00:03:09.807Z,10.34
2018-05-01T00:05:38.397Z,10.36
2018-05-01T00:08:06.765Z,10.17
2018-05-01T00:10:34.368Z,10.14
2018-05-01T00:13:02.024Z,10.03
2018-05-01T00:15:29.599Z,9.93
2018-05-01T00:17:57.223Z,10.07
2018-05-01T00:20:24.941Z,9.91
2018-05-01T00:22:52.644Z,9.89
2018-05-01T00:25:20.251Z,9.79
2018-05-01T00:27:47.936Z,9.88
2018-05-01T00:30:17.992Z,9.70
2018-05-01T00:32:45.656Z,9.90
2018-05-01T00:35:13.242Z,9.80
2018-05-01T00:37:43.569Z,9.74
2018-05-01T00:40:12.235Z,9.74
2018-05-01T00:42:39.899Z,9.53
2018-05-01T00:45:07.551Z,9.47
2018-05-01T00:47:35.211Z,9.56
2018-05-01T00:50:02.819Z,9.65
2018-05-01T00:52:42.366Z,9.61
2018-05-01T00:55:10.045Z,9.46
2018-05-01T00:57:37.688Z,9.38
2018-05-01T01:00:05.419Z,9.36
2018-05-01T01:02:33.102Z,9.44
2018-05-01T01:05:00.831Z,9.39
2018-05-01T01:07:28.571Z,9.25
2018-05-01T01:09:56.473Z,9.33
2018-05-01T01:12:24.162Z,9.44
2018-05-01T01:14:51.927Z,9.41
2018-05-01T01:17:19.800Z,9.33
2018-05-01T01:19:47.468Z,9.46
2018-05-01T01:22:15.098Z,9.14
2018-05-01T01:24:42.703Z,9.09
2018-05-01T01:27:10.351Z,9.15
2018-05-01T01:29:37.963Z,8.96
2018-05-01T01:32:20.472Z,9.02
2018-05-01T01:34:48.234Z,9.07
2018-05-01T01:37:15.511Z,9.18
2018-05-01T01:39:42.563Z,9.18
2018-05-01T01:42:09.647Z,8.98
2018-05-01T01:44:36.772Z,9.09
2018-05-01T01:47:03.960Z,8.99
2018-05-01T01:49:31.030Z,8.87
2018-05-01T01:51:58.091Z,8.89
2018-05-01T01:54:25.189Z,8.80
2018-05-01T01:56:52.242Z,8.74
2018-05-01T01:59:19.365Z,8.88
2018-05-01T02:01:46.478Z,8.78
2018-05-01T02:04:13.571Z,8.70
2018-05-01T02:06:40.640Z,8.75
2018-05-01T02:09:07.784Z,8.67
2018-05-01T02:11:35.302Z,8.75
2018-05-01T02:14:02.367Z,8.68
2018-05-01T02:16:29.620Z,8.62
2018-05-01T02:18:56.661Z,8.75
2018-05-01T02:21:23.760Z,8.60
2018-05-01T02:23:50.907Z,8.54
2018-05-01T02:26:18.003Z,8.34
2018-05-01T02:28:45.112Z,8.38
2018-05-01T02:31:12.239Z,8.47
2018-05-01T02:33:39.318Z,8.56
2018-05-01T02:36:06.409Z,8.68
2018-05-01T02:38:33.515Z,8.62
2018-05-01T02:41:00.623Z,8.54
2018-05-01T02:43:27.675Z,8.35
2018-05-01T02:45:55.397Z,8.40
2018-05-01T02:48:22.427Z,8.32
2018-05-01T02:50:49.513Z,8.26
2018-05-01T02:53:16.611Z,8.16
2018-05-01T02:55:43.643Z,8.20
2018-05-01T02:58:10.746Z,8.19
2018-05-01T03:00:37.836Z,8.20
2018-05-01T03:03:06.420Z,8.07
2018-05-01T03:05:33.518Z,8.21
2018-05-01T03:08:00.594Z,8.16
2018-05-01T03:10:27.678Z,8.14
2018-05-01T03:12:54.752Z,8.09
2018-05-01T03:15:21.841Z,7.98
2018-05-01T03:17:48.960Z,7.94
2018-05-01T03:20:16.016Z,8.06
2018-05-01T03:22:43.121Z,7.93
2018-05-01T03:25:10.154Z,7.71
2018-05-01T03:27:37.237Z,7.92
2018-05-01T03:30:04.310Z,7.82
2018-05-01T03:32:31.403Z,7.84
2018-05-01T03:34:58.444Z,7.86
2018-05-01T03:37:25.547Z,7.90
2018-05-01T03:39:52.602Z,7.86
2018-05-01T03:42:20.575Z,7.76
2018-05-01T03:44:47.664Z,7.73
2018-05-01T03:47:14.707Z,7.71
2018-05-01T03:49:41.806Z,7.67
2018-05-01T03:52:08.865Z,7.58
2018-05-01T03:54:35.969Z,7.51
2018-05-01T03:57:03.009Z,7.58
2018-05-01T03:59:30.088Z,7.20
2018-05-01T04:01:57.176Z,7.37
2018-05-01T04:04:24.283Z,7.52
2018-05-01T04:06:51.370Z,7.55
2018-05-01T04:09:18.408Z,7.57
2018-05-01T04:11:45.444Z,7.57
2018-05-01T04:14:12.585Z,7.54
2018-05-01T04:16:39.687Z,7.53
2018-05-01T04:19:06.780Z,7.39
2018-05-01T04:21:33.873Z,7.39
2018-05-01T04:24:00.973Z,7.50
2018-05-01T04:26:28.013Z,7.59
2018-05-01T04:28:55.098Z,7.63
2018-05-01T04:31:22.167Z,7.57
2018-05-01T04:33:49.258Z,7.63
2018-05-01T04:36:16.387Z,7.72
2018-05-01T04:38:43.466Z,7.73
2018-05-01T04:41:10.512Z,7.69
2018-05-01T04:43:37.624Z,7.74
2018-05-01T04:46:04.665Z,7.77
2018-05-01T04:48:31.763Z,7.53
2018-05-01T04:50:58.805Z,7.53
2018-05-01T04:53:26.949Z,7.52
2018-05-01T04:55:54.020Z,7.76
2018-05-01T04:58:21.152Z,7.93
2018-05-01T05:00:48.199Z,8.18
2018-05-01T05:03:15.261Z,8.48
2018-05-01T05:05:42.378Z,8.83
2018-05-01T05:08:10.624Z,9.26
2018-05-01T05:10:37.661Z,9.37
2018-05-01T05:13:05.466Z,9.38
2018-05-01T05:15:32.646Z,9.30
2018-05-01T05:17:59.811Z,9.29
2018-05-01T05:20:26.865Z,9.18
2018-05-01T05:22:54.893Z,9.30
2018-05-01T05:25:21.929Z,9.37
2018-05-01T05:27:49.044Z,9.33
2018-05-01T05:30:16.148Z,8.79
2018-05-01T05:32:43.205Z,9.01
2018-05-01T05:35:10.282Z,9.44
2018-05-01T05:37:37.393Z,9.44
2018-05-01T05:40:04.474Z,9.28
2018-05-01T05:42:31.567Z,9.63
2018-05-01T05:44:58.639Z,9.90
2018-05-01T05:47:25.746Z,10.17
2018-05-01T05:49:52.882Z,10.08
2018-05-01T05:52:19.943Z,10.21
2018-05-01T05:54:47.054Z,10.38
2018-05-01T05:57:14.128Z,10.22
2018-05-01T05:59:41.236Z,10.13
2018-05-01T06:02:08.343Z,10.02
2018-05-01T06:04:35.450Z,10.17
2018-05-01T06:07:02.615Z,10.34
2018-05-01T06:09:29.687Z,10.42
2018-05-01T06:11:56.821Z,10.28
2018-05-01T06:14:23.911Z,10.34
2018-05-01T06:16:50.994Z,10.37
2018-05-01T06:19:19.008Z,10.48
2018-05-01T06:21:46.140Z,10.44
2018-05-01T06:24:13.431Z,10.32
2018-05-01T06:26:40.548Z,10.88
2018-05-01T06:29:07.672Z,11.02
2018-05-01T06:31:34.791Z,11.12
2018-05-01T06:34:01.911Z,11.00
2018-05-01T06:36:28.974Z,10.98
2018-05-01T06:38:56.095Z,11.13
2018-05-01T06:41:23.196Z,11.73
2018-05-01T06:43:50.282Z,12.05
2018-05-01T06:46:17.687Z,12.74
2018-05-01T06:48:44.784Z,13.00
2018-05-01T06:51:11.918Z,13.24
2018-05-01T06:53:39.018Z,13.78
2018-05-01T06:56:06.084Z,13.14
2018-05-01T06:58:33.232Z,12.79
2018-05-01T07:01:00.355Z,13.44
2018-05-01T07:03:27.466Z,13.49
2018-05-01T07:05:54.557Z,13.00
2018-05-01T07:08:21.656Z,14.08
2018-05-01T07:10:48.752Z,14.46
2018-05-01T07:13:15.893Z,14.20
2018-05-01T07:15:43.158Z,13.76
2018-05-01T07:18:10.262Z,14.09
2018-05-01T07:20:37.381Z,13.91
2018-05-01T07:23:04.478Z,13.94
2018-05-01T07:25:31.564Z,14.67
2018-05-01T07:27:58.714Z,14.68
2018-05-01T07:30:26.763Z,14.78
2018-05-01T07:32:53.821Z,14.54
2018-05-01T07:35:20.923Z,14.34
2018-05-01T07:37:48.020Z,14.42
2018-05-01T07:40:15.147Z,14.61
2018-05-01T07:42:42.198Z,15.34
2018-05-01T07:45:09.357Z,15.26
2018-05-01T07:47:36.403Z,15.60
2018-05-01T07:50:03.574Z,15.91
2018-05-01T07:52:30.642Z,16.16
2018-05-01T07:54:57.828Z,16.13
2018-05-01T07:57:24.957Z,16.35
2018-05-01T07:59:52.016Z,15.81
2018-05-01T08:02:19.104Z,15.79
2018-05-01T08:04:46.155Z,15.88
2018-05-01T08:07:13.939Z,15.65
2018-05-01T08:09:41.048Z,16.39
2018-05-01T08:12:08.220Z,16.66
2018-05-01T08:14:35.579Z,16.28
2018-05-01T08:17:02.724Z,15.77
2018-05-01T08:19:29.871Z,15.57
2018-05-01T08:21:56.999Z,16.25
2018-05-01T08:24:24.133Z,16.34
2018-05-01T08:26:51.190Z,16.63
2018-05-01T08:29:18.296Z,16.72
2018-05-01T08:31:45.397Z,16.92
2018-05-01T08:34:12.547Z,17.05
2018-05-01T08:36:39.700Z,17.72
2018-05-01T08:39:06.781Z,17.49
2018-05-01T08:41:33.955Z,17.29
2018-05-01T08:44:01.066Z,17.76
2018-05-01T08:46:28.201Z,17.35
2018-05-01T08:48:55.350Z,17.10
2018-05-01T08:51:22.504Z,17.21
2018-05-01T08:53:50.628Z,17.72
2018-05-01T08:56:17.726Z,17.56
2018-05-01T08:58:44.817Z,18.42
2018-05-01T09:01:11.949Z,18.17
2018-05-01T09:03:39.087Z,18.58
2018-05-01T09:06:06.233Z,18.28
2018-05-01T09:08:33.358Z,18.98
2018-05-01T09:11:01.453Z,17.65
2018-05-01T09:13:28.625Z,17.59
2018-05-01T09:15:56.965Z,18.45
2018-05-01T09:18:24.388Z,18.97
2018-05-01T09:20:51.306Z,18.58
2018-05-01T09:23:18.491Z,18.13
2018-05-01T09:25:45.565Z,18.58
2018-05-01T09:28:12.715Z,18.17
2018-05-01T09:30:39.856Z,17.96
2018-05-01T09:33:06.924Z,18.38
2018-05-01T09:35:35.138Z,18.69
2018-05-01T09:38:02.950Z,18.91
2018-05-01T09:40:30.035Z,19.00
2018-05-01T09:42:57.799Z,18.90
2018-05-01T09:45:24.914Z,18.27
2018-05-01T09:47:52.173Z,18.40
2018-05-01T09:50:19.368Z,18.41
2018-05-01T09:52:47.011Z,18.74
2018-05-01T09:55:17.755Z,18.93
2018-05-01T09:57:45.635Z,18.99
2018-05-01T10:00:14.830Z,18.55
2018-05-01T10:02:42.597Z,18.94
2018-05-01T10:05:10.481Z,18.92
2018-05-01T10:07:39.357Z,19.03
2018-05-01T10:10:07.039Z,19.38
2018-05-01T10:12:34.833Z,19.57
2018-05-01T10:15:02.478Z,19.28
2018-05-01T10:17:30.148Z,19.41
2018-05-01T10:19:57.767Z,19.50
2018-05-01T10:22:25.428Z,18.84
2018-05-01T10:24:53.092Z,18.73
2018-05-01T10:27:20.799Z,19.31
2018-05-01T10:29:48.452Z,19.12
2018-05-01T10:32:16.075Z,19.30
2018-05-01T10:34:43.751Z,19.18
2018-05-01T10:37:11.410Z,19.02
2018-05-01T10:39:40.253Z,18.91
2018-05-01T10:42:07.922Z,19.04
2018-05-01T10:44:35.551Z,19.19
2018-05-01T10:47:03.237Z,19.25
2018-05-01T10:49:30.992Z,19.29
2018-05-01T10:51:58.594Z,19.75
2018-05-01T10:54:26.249Z,19.58
2018-05-01T10:56:53.910Z,19.54
2018-05-01T10:59:22.412Z,19.59
2018-05-01T11:01:50.126Z,19.32
2018-05-01T11:04:17.733Z,19.31
2018-05-01T11:06:45.471Z,19.87
2018-05-01T11:09:13.170Z,19.81
2018-05-01T11:11:40.827Z,20.33
2018-05-01T11:14:08.509Z,20.45
2018-05-01T11:16:37.359Z,20.66
2018-05-01T11:19:05.091Z,20.39
2018-05-01T11:21:32.766Z,20.22
2018-05-01T11:24:00.481Z,20.29
2018-05-01T11:26:28.137Z,20.06
2018-05-01T11:28:55.770Z,20.11
2018-05-01T11:31:23.418Z,20.03
2018-05-01T11:33:51.037Z,20.02
2018-05-01T11:36:18.714Z,20.67
2018-05-01T11:38:46.341Z,20.49
2018-05-01T11:41:14.029Z,20.37
2018-05-01T11:43:41.678Z,20.59
2018-05-01T11:46:10.727Z,20.42
2018-05-01T11:48:38.506Z,20.66
2018-05-01T11:51:07.232Z,20.59
2018-05-01T11:53:34.958Z,20.77
2018-05-01T11:56:02.627Z,21.08
2018-05-01T11:58:30.307Z,20.86
2018-05-01T12:00:57.949Z,20.93
2018-05-01T12:03:25.641Z,20.51
2018-05-01T12:05:53.241Z,20.98
2018-05-01T12:08:20.939Z,21.10
2018-05-01T12:10:48.539Z,21.26
2018-05-01T12:13:16.248Z,21.15
2018-05-01T12:15:43.914Z,21.58
2018-05-01T12:18:11.520Z,21.39
2018-05-01T12:20:39.189Z,21.30
2018-05-01T12:23:06.799Z,21.49
2018-05-01T12:25:34.510Z,21.33
2018-05-01T12:28:03.374Z,20.89
2018-05-01T12:30:31.074Z,20.64
2018-05-01T12:32:58.712Z,20.78
2018-05-01T12:35:26.480Z,21.01
2018-05-01T12:37:54.185Z,21.02
2018-05-01T12:40:21.932Z,21.30
2018-05-01T12:42:49.556Z,20.72
2018-05-01T12:45:17.283Z,21.21
2018-05-01T12:47:44.946Z,21.32
2018-05-01T12:50:12.661Z,21.30
2018-05-01T12:52:41.164Z,21.24
2018-05-01T12:55:08.787Z,21.29
2018-05-01T12:57:36.445Z,20.98
2018-05-01T13:00:04.216Z,20.67
2018-05-01T13:02:31.893Z,21.06
2018-05-01T13:04:59.529Z,21.17
2018-05-01T13:07:27.213Z,21.49
2018-05-01T13:09:56.037Z,21.22
2018-05-01T13:12:23.820Z,21.17
2018-05-01T13:14:51.366Z,21.17
2018-05-01T13:17:19.171Z,21.16
2018-05-01T13:19:46.898Z,21.88
2018-05-01T13:22:14.577Z,21.88
2018-05-01T13:24:42.383Z,21.57
2018-05-01T13:27:10.850Z,20.90
2018-05-01T13:29:38.611Z,21.21
2018-05-01T13:32:06.349Z,21.07
2018-05-01T13:34:34.120Z,21.24
2018-05-01T13:37:03.021Z,21.48
2018-05-01T13:39:30.816Z,20.57
2018-05-01T13:41:59.388Z,20.83
2018-05-01T13:44:27.131Z,21.11
2018-05-01T13:46:54.820Z,20.99
2018-05-01T13:49:22.580Z,20.61
2018-05-01T13:51:50.446Z,20.80
2018-05-01T13:54:18.184Z,20.74
2018-05-01T13:56:46.108Z,20.54
2018-05-01T13:59:13.979Z,20.79
2018-05-01T14:01:42.124Z,20.68
2018-05-01T14:04:10.602Z,20.32
2018-05-01T14:06:38.575Z,20.46
2018-05-01T14:09:06.597Z,20.55
2018-05-01T14:11:34.566Z,20.45
2018-05-01T14:14:03.198Z,19.95
2018-05-01T14:16:31.679Z,19.73
2018-05-01T14:18:59.374Z,19.84
2018-05-01T14:21:27.312Z,19.66
2018-05-01T14:23:55.003Z,19.52
2018-05-01T14:26:22.692Z,19.85
2018-05-01T14:28:51.332Z,19.63
2018-05-01T14:31:19.036Z,19.46
2018-05-01T14:33:46.726Z,19.35
2018-05-01T14:36:14.368Z,19.60
2018-05-01T14:38:42.061Z,19.60
2018-05-01T14:41:11.723Z,19.84
2018-05-01T14:43:39.395Z,20.19
2018-05-01T14:46:07.143Z,20.28
2018-05-01T14:48:34.796Z,20.28
2018-05-01T14:51:03.796Z,19.88
2018-05-01T14:53:31.428Z,19.43
2018-05-01T14:56:00.229Z,19.17
2018-05-01T14:58:27.934Z,19.18
2018-05-01T15:00:55.688Z,19.47
2018-05-01T15:03:23.616Z,19.40
2018-05-01T15:05:52.593Z,19.50
2018-05-01T15:08:20.375Z,19.67
2018-05-01T15:10:48.063Z,19.57
2018-05-01T15:13:15.743Z,19.57
2018-05-01T15:15:43.483Z,19.83
2018-05-01T15:18:11.235Z,19.92
2018-05-01T15:20:38.983Z,19.83
2018-05-01T15:23:06.717Z,19.85
2018-05-01T15:25:34.705Z,19.50
2018-05-01T15:28:02.390Z,19.61
2018-05-01T15:30:30.196Z,19.64
2018-05-01T15:32:58.775Z,19.78
2018-05-01T15:35:26.611Z,19.35
2018-05-01T15:37:54.269Z,19.30
2018-05-01T15:40:22.343Z,19.16
2018-05-01T15:42:50.267Z,19.07
2018-05-01T15:45:18.049Z,19.27
2018-05-01T15:47:45.789Z,19.50
2018-05-01T15:50:13.555Z,18.95
2018-05-01T15:52:41.461Z,18.90
2018-05-01T15:55:09.199Z,18.97
2018-05-01T15:57:37.056Z,18.97
2018-05-01T16:00:04.766Z,18.42
2018-05-01T16:02:32.451Z,18.65
2018-05-01T16:05:00.463Z,18.44
2018-05-01T16:07:28.211Z,17.93
2018-05-01T16:09:55.978Z,18.10
2018-05-01T16:12:23.625Z,18.08
2018-05-01T16:14:51.906Z,17.97
2018-05-01T16:17:19.688Z,17.91
2018-05-01T16:19:47.448Z,17.88
2018-05-01T16:22:15.159Z,17.82
2018-05-01T16:24:43.237Z,17.94
2018-05-01T16:27:10.955Z,17.96
2018-05-01T16:29:38.688Z,17.92
2018-05-01T16:32:06.375Z,17.91
2018-05-01T16:34:34.013Z,17.77
2018-05-01T16:37:01.684Z,17.62
2018-05-01T16:39:29.342Z,17.65
2018-05-01T16:41:57.028Z,17.63
2018-05-01T16:44:24.633Z,17.33
2018-05-01T16:46:52.244Z,17.31
2018-05-01T16:49:20.107Z,17.57
2018-05-01T16:51:47.923Z,17.38
2018-05-01T16:54:15.790Z,17.52
2018-05-01T16:56:43.798Z,17.44
2018-05-01T16:59:11.720Z,17.27
2018-05-01T17:01:39.789Z,17.15
2018-05-01T17:04:08.017Z,17.15
2018-05-01T17:06:36.049Z,17.14
2018-05-01T17:09:03.915Z,17.31
2018-05-01T17:11:31.684Z,17.25
2018-05-01T17:13:59.719Z,17.12
2018-05-01T17:16:27.635Z,17.00
2018-05-01T17:18:56.539Z,16.82
2018-05-01T17:21:24.532Z,16.87
2018-05-01T17:23:52.218Z,16.86
2018-05-01T17:26:20.527Z,16.95
2018-05-01T17:28:48.544Z,17.00
2018-05-01T17:31:17.132Z,16.91
2018-05-01T17:33:46.046Z,16.76
2018-05-01T17:36:13.942Z,16.63
2018-05-01T17:38:41.655Z,16.41
2018-05-01T17:41:09.977Z,16.33
2018-05-01T17:43:37.595Z,16.22
2018-05-01T17:46:06.304Z,16.22
2018-05-01T17:48:34.703Z,16.23
2018-05-01T17:51:02.662Z,16.30
2018-05-01T17:53:31.783Z,16.29
2018-05-01T17:55:59.587Z,16.19
2018-05-01T17:58:27.563Z,15.96
2018-05-01T18:00:55.468Z,15.90
2018-05-01T18:03:24.081Z,15.99
2018-05-01T18:05:51.895Z,15.91
2018-05-01T18:08:20.754Z,16.00
2018-05-01T18:10:48.657Z,15.89
2018-05-01T18:13:16.422Z,15.83
2018-05-01T18:15:45.938Z,15.89
2018-05-01T18:18:13.807Z,15.90
2018-05-01T18:20:41.775Z,15.75
2018-05-01T18:23:10.411Z,15.87
2018-05-01T18:25:39.267Z,15.87
2018-05-01T18:28:07.160Z,15.90
2018-05-01T18:30:35.055Z,15.98
2018-05-01T18:33:02.902Z,15.78
2018-05-01T18:35:31.281Z,15.59
2018-05-01T18:37:59.382Z,15.56
2018-05-01T18:40:29.300Z,15.55
2018-05-01T18:42:57.186Z,15.48
2018-05-01T18:45:26.712Z,15.36
2018-05-01T18:47:55.473Z,15.24
2018-05-01T18:50:23.482Z,15.13
2018-05-01T18:52:52.152Z,15.21
2018-05-01T18:55:20.055Z,15.20
2018-05-01T18:57:47.956Z,15.03
2018-05-01T19:00:15.695Z,14.80
2018-05-01T19:02:44.151Z,14.73
2018-05-01T19:05:14.090Z,14.64
2018-05-01T19:07:43.278Z,14.64
2018-05-01T19:10:11.216Z,14.59
2018-05-01T19:12:38.989Z,14.47
2018-05-01T19:15:06.927Z,14.34
2018-05-01T19:17:34.737Z,14.30
2018-05-01T19:20:02.696Z,14.34
2018-05-01T19:22:30.501Z,14.40
2018-05-01T19:24:58.464Z,14.46
2018-05-01T19:27:26.569Z,14.38
2018-05-01T19:29:54.444Z,14.15
2018-05-01T19:32:22.279Z,14.21
2018-05-01T19:34:50.637Z,14.09
2018-05-01T19:37:18.459Z,14.09
2018-05-01T19:39:46.859Z,14.08
2018-05-01T19:42:15.235Z,14.16
2018-05-01T19:44:44.115Z,14.00
2018-05-01T19:47:12.764Z,13.96
2018-05-01T19:49:41.034Z,13.79
2018-05-01T19:52:08.849Z,13.62
2018-05-01T19:54:36.808Z,13.63
2018-05-01T19:57:04.497Z,13.60
2018-05-01T19:59:32.350Z,13.55
2018-05-01T20:02:00.044Z,13.38
2018-05-01T20:04:27.880Z,13.41
2018-05-01T20:06:55.535Z,13.45
2018-05-01T20:09:23.262Z,13.33
2018-05-01T20:11:51.941Z,13.38
2018-05-01T20:14:20.581Z,13.23
2018-05-01T20:16:48.286Z,13.32
2018-05-01T20:19:15.977Z,13.32
2018-05-01T20:21:43.696Z,13.23
2018-05-01T20:24:11.339Z,13.30
2018-05-01T20:26:39.095Z,13.05
2018-05-01T20:29:06.727Z,12.94
2018-05-01T20:31:34.631Z,12.89
2018-05-01T20:34:02.451Z,12.78
2018-05-01T20:36:30.248Z,12.62
2018-05-01T20:38:58.529Z,12.84
2018-05-01T20:41:26.251Z,12.99
2018-05-01T20:43:54.574Z,12.90
2018-05-01T20:46:22.213Z,12.79
2018-05-01T20:48:49.942Z,12.72
2018-05-01T20:51:17.583Z,12.63
2018-05-01T20:53:45.265Z,12.49
2018-05-01T20:56:12.887Z,12.47
2018-05-01T20:58:42.980Z,12.51
2018-05-01T21:01:10.584Z,12.46
2018-05-01T21:03:38.262Z,12.41
2018-05-01T21:06:05.934Z,12.45
2018-05-01T21:08:33.658Z,12.23
2018-05-01T21:11:01.371Z,12.21
2018-05-01T21:13:28.991Z,12.28
2018-05-01T21:15:56.643Z,12.26
2018-05-01T21:18:24.304Z,11.93
2018-05-01T21:20:51.965Z,11.88
2018-05-01T21:23:19.928Z,12.00
2018-05-01T21:25:47.684Z,11.87
2018-05-01T21:28:16.424Z,12.02
2018-05-01T21:30:44.116Z,12.02
2018-05-01T21:33:11.791Z,11.90
2018-05-01T21:35:39.408Z,11.80
2018-05-01T21:38:07.061Z,11.88
2018-05-01T21:40:34.726Z,11.86
2018-05-01T21:43:02.466Z,11.83
2018-05-01T21:45:30.044Z,11.72
2018-05-01T21:47:57.661Z,11.91
2018-05-01T21:50:25.315Z,11.74
2018-05-01T21:52:52.890Z,11.73
2018-05-01T21:55:20.562Z,11.83
2018-05-01T21:57:48.581Z,11.79
2018-05-01T22:00:16.253Z,11.63
2018-05-01T22:02:43.889Z,11.67
2018-05-01T22:05:11.488Z,11.67
2018-05-01T22:07:39.354Z,11.62
2018-05-01T22:10:07.080Z,11.50
2018-05-01T22:12:34.922Z,11.33
2018-05-01T22:15:02.592Z,11.41
2018-05-01T22:17:30.337Z,11.45
2018-05-01T22:19:57.987Z,11.39
2018-05-01T22:22:25.709Z,11.43
2018-05-01T22:24:53.387Z,11.46
2018-05-01T22:27:21.041Z,11.41
2018-05-01T22:29:48.695Z,11.40
2018-05-01T22:32:16.398Z,11.44
2018-05-01T22:34:44.003Z,11.42
2018-05-01T22:37:11.632Z,11.34
2018-05-01T22:39:39.249Z,11.19
2018-05-01T22:42:06.915Z,11.31
2018-05-01T22:44:34.519Z,11.28
2018-05-01T22:47:02.173Z,11.19
2018-05-01T22:49:29.831Z,11.33
2018-05-01T22:51:57.482Z,11.40
2018-05-01T22:54:25.107Z,11.42
2018-05-01T22:56:52.824Z,11.55
2018-05-01T22:59:20.424Z,11.43
2018-05-01T23:01:48.047Z,11.39
2018-05-01T23:04:15.734Z,11.32
2018-05-01T23:06:43.391Z,11.23
2018-05-01T23:09:11.081Z,11.17
2018-05-01T23:11:38.692Z,11.27
2018-05-01T23:14:06.332Z,11.46
2018-05-01T23:16:33.922Z,11.52
2018-05-01T23:19:01.583Z,11.51
2018-05-01T23:21:29.177Z,11.55
2018-05-01T23:23:56.822Z,11.56
2018-05-01T23:26:24.445Z,11.50
2018-05-01T23:28:52.080Z,11.39
2018-05-01T23:31:19.693Z,11.40
2018-05-01T23:33:47.352Z,11.36
2018-05-01T23:36:15.353Z,11.38
2018-05-01T23:38:42.966Z,11.48
2018-05-01T23:41:10.613Z,11.55
2018-05-01T23:43:38.247Z,11.50
2018-05-01T23:46:05.889Z,11.45
2018-05-01T23:48:33.492Z,11.59
2018-05-01T23:51:01.200Z,11.58
2018-05-01T23:53:28.820Z,11.45
2018-05-01T23:55:56.470Z,11.55
2018-05-01T23:58:24.085Z,11.55
